Weather History for Hurlburt Field, FL

Change the Weather History Date:

Sunday, November 17, 2013

  Actual Average Record
Temperature  
Mean Temperature 22 °C -  
Max Temperature 26 °C 20 °C 25 °C (2013)
Min Temperature 19 °C 9 °C -2 °C (1997)
Cooling Degree Days 8    
Growing Degree Days 22 (Base 50)    
Moisture  
Dew Point 21 °C    
Average Humidity 88    
Maximum Humidity 94    
Minimum Humidity 74    
Precipitation  
Precipitation 0.00 mm - - ()
Sea Level Pressure  
Sea Level Pressure 1015 hPa    
Wind  
Wind Speed 16 km/h (SSE)    
Max Wind Speed 26 km/h    
Max Gust Speed 37 km/h    
Visibility 14 kilometers    
Events Rain    
Averages and records for this station are not official NWS values.
T = Trace of Precipitation, MM = Missing Value Source: NWS Daily Summary

Daily Weather History Graph

Daily Weather History Graph

Search for Another Location

Airport:

Trip Planner

Search our weather history database for the weather conditions in past years. The results will help you decide how hot, cold, wet, or windy it might be!

Date:

Astronomy

Nov. 17, 2013 Rise Set
Actual Time 6:14 AM CST 4:48 PM CST
Civil Twilight 5:48 AM CST 5:14 PM CST
Nautical Twilight 5:19 AM CST 5:43 PM CST
Astronomical Twilight 4:51 AM CST 6:12 PM CST
Moon 5:05 PM CST (11/17) 6:08 AM CST (11/17)
Length of Visible Light 11h 25m
Length of Day
10h 34m
Full, 100% of the Moon is Illuminated
Nov 17
Full
Nov 25
Last Quarter
Dec 2
New
Dec 9
First Quarter
Dec 17
Full

Hourly Weather History & Observations

Time (CST) Temp. Dew Point Humidity Pressure Visibility Wind Dir Wind Speed Gust Speed Precip Events Conditions
12:03 AM 20.0 °C 19.0 °C 94% 1016.5 hPa 9.7 km East 20.4 km/h / 5.7 m/s - N/A   Light Drizzle
12:09 AM 20.0 °C 19.0 °C 94% 1016.5 hPa 12.9 km East 18.5 km/h / 5.1 m/s - N/A   Overcast
12:24 AM 20.0 °C 19.0 °C 94% 1016.1 hPa 14.5 km ESE 20.4 km/h / 5.7 m/s - N/A   Overcast
12:58 AM 19.9 °C 18.4 °C 91% 1016.1 hPa 16.1 km ESE 18.5 km/h / 5.1 m/s - 0.0 mm   Overcast
1:58 AM 20.0 °C 18.3 °C 90% 1015.7 hPa 16.1 km ESE 20.4 km/h / 5.7 m/s - N/A   Overcast
2:03 AM 20.0 °C 18.0 °C 88% 1015.1 hPa 16.1 km ESE 22.2 km/h / 6.2 m/s - N/A   Overcast
2:58 AM 20.2 °C 18.4 °C 89% 1015.4 hPa 16.1 km ESE 18.5 km/h / 5.1 m/s - N/A   Overcast
3:58 AM 20.4 °C 18.6 °C 89% 1015.4 hPa 16.1 km ESE 20.4 km/h / 5.7 m/s 27.8 km/h / 7.7 m/s N/A   Overcast
4:08 AM 21.0 °C 18.0 °C 83% 1014.8 hPa 16.1 km ESE 20.4 km/h / 5.7 m/s 31.5 km/h / 8.7 m/s N/A   Overcast
4:28 AM 21.0 °C 18.0 °C 83% 1014.8 hPa 16.1 km ESE 20.4 km/h / 5.7 m/s - N/A   Overcast
4:58 AM 20.6 °C 18.4 °C 87% 1015.4 hPa 16.1 km SE 16.7 km/h / 4.6 m/s - N/A   Overcast
5:38 AM 21.0 °C 18.0 °C 83% 1015.1 hPa 16.1 km ESE 18.5 km/h / 5.1 m/s - N/A   Overcast
5:42 AM 21.0 °C 18.0 °C 83% 1015.1 hPa 16.1 km SE 20.4 km/h / 5.7 m/s - N/A   Light Drizzle
5:47 AM 21.0 °C 19.0 °C 88% 1015.1 hPa 14.5 km SE 20.4 km/h / 5.7 m/s - N/A Rain Light Rain
5:58 AM 20.5 °C 18.7 °C 89% 1015.4 hPa 14.5 km ESE 18.5 km/h / 5.1 m/s - 0.0 mm Rain Light Rain
6:08 AM 20.0 °C 19.0 °C 94% 1015.1 hPa 14.5 km SE 22.2 km/h / 6.2 m/s 33.3 km/h / 9.3 m/s N/A Rain Light Rain
6:09 AM 20.0 °C 19.0 °C 94% 1015.1 hPa 16.1 km SE 22.2 km/h / 6.2 m/s 33.3 km/h / 9.3 m/s N/A   Overcast
6:34 AM 20.0 °C 19.0 °C 94% 1015.1 hPa 16.1 km SE 22.2 km/h / 6.2 m/s 37.0 km/h / 10.3 m/s N/A   Overcast
6:58 AM 20.6 °C 18.8 °C 89% 1015.4 hPa 16.1 km ESE 16.7 km/h / 4.6 m/s 31.5 km/h / 8.7 m/s 0.0 mm   Overcast
7:58 AM 20.8 °C 18.8 °C 88% 1016.4 hPa 16.1 km SE 18.5 km/h / 5.1 m/s - N/A   Overcast
8:07 AM 21.0 °C 19.0 °C 88% 1015.8 hPa 16.1 km SE 24.1 km/h / 6.7 m/s - N/A   Light Drizzle
8:12 AM 21.0 °C 19.0 °C 88% 1015.8 hPa 16.1 km SE 22.2 km/h / 6.2 m/s - N/A   Overcast
8:22 AM 21.0 °C 19.0 °C 88% 1015.5 hPa 16.1 km SE 25.9 km/h / 7.2 m/s - N/A   Overcast
8:58 AM 22.0 °C 19.4 °C 85% 1016.1 hPa 16.1 km SE 22.2 km/h / 6.2 m/s - 0.0 mm   Overcast
9:03 AM 22.0 °C 20.0 °C 88% 1015.8 hPa 16.1 km SE 25.9 km/h / 7.2 m/s - N/A   Overcast
9:13 AM 22.0 °C 20.0 °C 88% 1015.8 hPa 16.1 km SE 25.9 km/h / 7.2 m/s - N/A   Overcast
9:48 AM 23.0 °C 20.0 °C 83% 1016.1 hPa 16.1 km SSE 16.7 km/h / 4.6 m/s - N/A   Overcast
9:58 AM 22.8 °C 19.7 °C 83% 1016.4 hPa 16.1 km SE 24.1 km/h / 6.7 m/s - N/A   Overcast
10:28 AM 23.0 °C 20.0 °C 83% 1016.1 hPa 16.1 km SSE 14.8 km/h / 4.1 m/s - N/A   Overcast
10:58 AM 23.7 °C 20.2 °C 81% 1016.4 hPa 16.1 km SSE 16.7 km/h / 4.6 m/s - N/A   Overcast
11:03 AM 24.0 °C 20.0 °C 78% 1016.1 hPa 16.1 km South 14.8 km/h / 4.1 m/s - N/A   Overcast
11:38 AM 25.0 °C 21.0 °C 78% 1015.5 hPa 16.1 km South 13.0 km/h / 3.6 m/s - N/A   Scattered Clouds
11:53 AM 25.0 °C 21.0 °C 78% 1015.5 hPa 16.1 km SSW 14.8 km/h / 4.1 m/s - N/A   Mostly Cloudy
11:58 AM 25.0 °C 21.0 °C 78% 1015.7 hPa 16.1 km SSW 13.0 km/h / 3.6 m/s - N/A   Mostly Cloudy
12:03 PM 26.0 °C 21.0 °C 74% 1015.5 hPa 16.1 km SSW 16.7 km/h / 4.6 m/s - N/A   Mostly Cloudy
12:43 PM 26.0 °C 22.0 °C 78% 1015.1 hPa 16.1 km SSW 18.5 km/h / 5.1 m/s - N/A   Light Drizzle
12:53 PM 26.0 °C 22.0 °C 78% 1014.8 hPa 16.1 km SSW 16.7 km/h / 4.6 m/s - N/A   Mostly Cloudy
12:58 PM 25.8 °C 21.6 °C 77% 1015.0 hPa 16.1 km South 14.8 km/h / 4.1 m/s - 0.0 mm   Mostly Cloudy
1:58 PM 25.8 °C 21.6 °C 77% 1014.4 hPa 16.1 km SSW 16.7 km/h / 4.6 m/s - N/A   Clear
2:18 PM 25.0 °C 22.0 °C 83% 1014.4 hPa 16.1 km SSW 13.0 km/h / 3.6 m/s - N/A   Mostly Cloudy
2:23 PM 25.0 °C 22.0 °C 83% 1014.4 hPa 16.1 km South 14.8 km/h / 4.1 m/s - N/A   Mostly Cloudy
2:43 PM 25.0 °C 21.0 °C 78% 1014.4 hPa 16.1 km South 13.0 km/h / 3.6 m/s - N/A   Overcast
2:58 PM 24.3 °C 21.4 °C 84% 1014.4 hPa 16.1 km South 11.1 km/h / 3.1 m/s - N/A   Overcast
3:58 PM 23.4 °C 21.7 °C 90% 1014.4 hPa 16.1 km South 11.1 km/h / 3.1 m/s - N/A   Overcast
4:58 PM 22.8 °C 21.6 °C 93% 1014.7 hPa 16.1 km South 9.3 km/h / 2.6 m/s - N/A   Overcast
5:58 PM 22.5 °C 21.0 °C 91% 1015.0 hPa 16.1 km South 5.6 km/h / 1.5 m/s - N/A   Mostly Cloudy
6:28 PM 23.0 °C 21.0 °C 88% 1015.1 hPa 16.1 km South 7.4 km/h / 2.1 m/s - N/A   Mostly Cloudy
6:58 PM 22.5 °C 21.0 °C 91% 1015.4 hPa 16.1 km SSW 5.6 km/h / 1.5 m/s - N/A   Overcast
7:08 PM 23.0 °C 21.0 °C 88% 1015.1 hPa 16.1 km SSW 7.4 km/h / 2.1 m/s - N/A   Overcast
7:58 PM 23.1 °C 21.6 °C 91% 1016.1 hPa 16.1 km SW 5.6 km/h / 1.5 m/s - N/A   Mostly Cloudy
8:33 PM 23.0 °C 22.0 °C 94% 1015.8 hPa 16.1 km WSW 3.7 km/h / 1.0 m/s - N/A   Mostly Cloudy
8:44 PM 23.0 °C 22.0 °C 94% 1015.8 hPa 12.9 km SW 3.7 km/h / 1.0 m/s - N/A Rain Light Rain
8:54 PM 23.0 °C 22.0 °C 94% 1015.8 hPa 16.1 km WSW 5.6 km/h / 1.5 m/s - N/A Rain Light Rain
8:55 PM 23.0 °C 22.0 °C 94% 1015.8 hPa 16.1 km WSW 5.6 km/h / 1.5 m/s - N/A   Mostly Cloudy
8:58 PM 23.0 °C 22.0 °C 94% 1016.1 hPa 16.1 km SW 5.6 km/h / 1.5 m/s - 0.0 mm   Mostly Cloudy
9:23 PM 23.0 °C 22.0 °C 94% 1015.8 hPa 16.1 km WSW 3.7 km/h / 1.0 m/s - N/A   Overcast
9:58 PM 23.0 °C 21.7 °C 92% 1016.1 hPa 16.1 km South 3.7 km/h / 1.0 m/s - N/A   Overcast
10:03 PM 23.0 °C 21.0 °C 88% 1015.8 hPa 14.5 km South 3.7 km/h / 1.0 m/s - N/A   Overcast
10:18 PM 23.0 °C 22.0 °C 94% 1015.8 hPa 8.0 km South 5.6 km/h / 1.5 m/s - N/A   Overcast
10:23 PM 23.0 °C 21.0 °C 88% 1015.8 hPa 4.8 km South 5.6 km/h / 1.5 m/s - N/A   Overcast
10:28 PM 22.0 °C 21.0 °C 94% 1015.8 hPa 2.8 km SSE 5.6 km/h / 1.5 m/s - N/A   Overcast
10:33 PM 22.0 °C 21.0 °C 94% 1015.5 hPa 2.0 km SSE 3.7 km/h / 1.0 m/s - N/A   Overcast
10:38 PM 22.0 °C 21.0 °C 94% 1015.5 hPa 2.0 km SSE 3.7 km/h / 1.0 m/s - N/A   Overcast
10:48 PM 22.0 °C 21.0 °C 94% 1015.5 hPa 3.2 km South 5.6 km/h / 1.5 m/s - N/A   Overcast
10:53 PM 22.0 °C 21.0 °C 94% 1015.5 hPa 2.8 km South 3.7 km/h / 1.0 m/s - N/A   Overcast
10:58 PM 22.4 °C 21.2 °C 93% 1015.7 hPa 2.8 km ESE 1.9 km/h / 0.5 m/s - N/A   Overcast
11:03 PM 22.0 °C 21.0 °C 94% 1015.5 hPa 2.8 km Calm Calm - N/A   Overcast
11:08 PM 23.0 °C 21.0 °C 88% 1015.8 hPa 4.0 km Calm Calm - N/A   Overcast
11:13 PM 23.0 °C 21.0 °C 88% 1015.5 hPa 9.7 km Calm Calm - N/A   Overcast
11:33 PM 23.0 °C 22.0 °C 94% 1015.5 hPa 16.1 km Calm Calm - N/A   Overcast
11:43 PM 23.0 °C 22.0 °C 94% 1015.1 hPa 14.5 km SSW 11.1 km/h / 3.1 m/s - N/A   Overcast
11:48 PM 23.0 °C 22.0 °C 94% 1015.1 hPa 16.1 km SSW 11.1 km/h / 3.1 m/s - N/A   Overcast
11:58 PM 23.2 °C 21.8 °C 92% 1015.4 hPa 16.1 km South 9.3 km/h / 2.6 m/s - N/A   Overcast